CW2798 Aduanas ES current weather conditions

sailwx.info

Air temperature 26.1° C
Dewpoint 23.6° C

Last reported at 2015-Aug-30 23:45 UTC.
Time now 2015-Aug-31 00:39 UTC

Location: N 38°48' E 000°11'.
View on Google Maps.

See reports from other nearby stations

  
Tides and Currents Weather Stations Pressure Air Temp Water Temp Dewpoint Dewpoint Depression Visibility Wind Speed Wind Dir Waves Ship Positions
date/time (UTC)wind fromknots sea level pressurealtimeterstation pressurevisibilityair tempwater tempwave heightnotes
2015-Aug-30 23:45 26.1
2015-Aug-30 23:30 26.7
2015-Aug-30 23:15 26.7
2015-Aug-30 22:45 045 1 gusting 6 26.7
2015-Aug-30 22:15 039 26.7
2015-Aug-30 22:00 344 0 gusting 4 26.7
2015-Aug-30 21:45 060 0 gusting 3 26.7
2015-Aug-30 20:45 329 2 gusting 6 26.7
2015-Aug-30 20:30 347 2 gusting 2 26.7
2015-Aug-30 20:15 352 0 gusting 6 26.7
2015-Aug-30 20:00 26.7
2015-Aug-30 19:30 26.7
2015-Aug-30 19:15 26.7
2015-Aug-30 19:00 27.2
2015-Aug-30 18:45 27.2
2015-Aug-30 18:30 27.2
2015-Aug-30 18:00 27.2
2015-Aug-30 17:45 27.2
2015-Aug-30 17:15 092 0 gusting 3 27.2
2015-Aug-30 17:00 099 3 gusting 5 27.2
2015-Aug-30 16:45 086 2 gusting 6 27.2
2015-Aug-30 16:30 093 1 gusting 6 27.8
2015-Aug-30 16:15 035 3 gusting 8 27.2
2015-Aug-30 15:45 077 5 gusting 10 27.2
2015-Aug-30 15:30 066 5 gusting 10 27.8
2015-Aug-30 14:30 051 5 gusting 6 27.8
2015-Aug-30 14:00 054 6 gusting 13 27.8
2015-Aug-30 13:45 042 5 gusting 11 27.8
2015-Aug-30 13:30 008 2 gusting 9 28.3
2015-Aug-30 13:15 046 3 gusting 10 28.3
2015-Aug-30 13:00 049 4 gusting 5 28.3
2015-Aug-30 12:30 004 6 gusting 11 27.2
2015-Aug-30 12:15 009 6 gusting 8 27.8
2015-Aug-30 11:45 032 3 gusting 9 28.3
2015-Aug-30 11:30 012 4 gusting 9 27.8
2015-Aug-30 11:00 018 2 gusting 7 28.3
2015-Aug-30 10:30 033 6 gusting 11 27.2
2015-Aug-30 10:15 013 5 gusting 7 27.2
2015-Aug-30 10:00 356 4 gusting 10 27.2
2015-Aug-30 09:45 342 4 gusting 9 27.2
2015-Aug-30 09:30 003 6 gusting 13 27.2
2015-Aug-30 09:15 031 1 gusting 5 27.8
2015-Aug-30 09:00 052 0 gusting 3 27.8
2015-Aug-30 08:15 068 1 gusting 6 26.7
2015-Aug-30 08:00 005 3 gusting 7 26.7
2015-Aug-30 07:30 347 5 gusting 11 26.1
2015-Aug-30 07:15 328 5 gusting 8 26.1
2015-Aug-30 07:00 329 4 gusting 8 26.1
2015-Aug-30 06:30 305 2 gusting 2 25.6
2015-Aug-30 06:15 006 2 gusting 6 25.6
2015-Aug-30 06:00 330 4 gusting 10 25.6
2015-Aug-30 05:30 354 5 gusting 7 25.6
2015-Aug-30 05:00 344 4 gusting 9 25.6
2015-Aug-30 04:45 331 3 gusting 9 25.6
2015-Aug-30 04:30 323 2 gusting 10 25.6
2015-Aug-30 03:30 310 3 gusting 6 25.6
2015-Aug-30 03:15 326 2 gusting 6 25.6
2015-Aug-30 03:00 289 2 gusting 6 25.6
2015-Aug-30 02:15 342 2 gusting 6 25.6
2015-Aug-30 02:00 320 4 gusting 12 25.6
2015-Aug-30 01:45 330 5 gusting 11 25.6
2015-Aug-30 01:30 350 4 gusting 8 25.6
2015-Aug-30 01:00 350 5 gusting 9 25.6
2015-Aug-30 00:45 342 2 gusting 7 25.6
2015-Aug-30 00:30 325 3 gusting 7 26.1
2015-Aug-30 00:15 329 3 gusting 6 26.1
2015-Aug-30 00:00 321 0 gusting 2 26.1
2015-Aug-29 23:45 355 2 gusting 4 26.1
2015-Aug-29 23:30 26.7
2015-Aug-29 23:15 26.1
2015-Aug-29 23:00 26.1
2015-Aug-29 22:00 26.7
2015-Aug-29 21:45 26.7
2015-Aug-29 21:30 26.7
2015-Aug-29 21:00 092 2 gusting 5 26.7
2015-Aug-29 20:45 080 2 gusting 5 26.7
2015-Aug-29 20:15 078 0 gusting 4 26.7
2015-Aug-29 19:30 26.7
2015-Aug-29 19:00 064 0 gusting 5 26.7
2015-Aug-29 18:15 027 1 gusting 6 26.7
2015-Aug-29 17:45 056 3 gusting 6 27.2
2015-Aug-29 17:30 048 2 gusting 4 27.8
2015-Aug-29 17:15 054 3 gusting 12 27.8
2015-Aug-29 16:45 002 3 gusting 7 28.3
2015-Aug-29 16:00 042 1 gusting 3 28.3
2015-Aug-29 15:45 071 3 gusting 9 28.3
2015-Aug-29 15:30 065 3 gusting 6 28.3
2015-Aug-29 15:15 056 3 gusting 7 28.3
2015-Aug-29 15:00 051 2 gusting 4 28.3
2015-Aug-29 14:30 060 3 gusting 6 28.3
2015-Aug-29 14:15 072 3 gusting 6 28.3
2015-Aug-29 13:45 060 3 gusting 8 28.3
2015-Aug-29 13:30 045 3 gusting 9 28.3
2015-Aug-29 13:15 069 2 gusting 9 28.9
2015-Aug-29 13:00 051 4 gusting 13 28.3
2015-Aug-29 12:45 056 3 gusting 10 28.9
2015-Aug-29 12:30 059 4 gusting 6 28.3
2015-Aug-29 12:00 019 3 gusting 9 27.8
2015-Aug-29 11:45 080 4 gusting 10 27.8
2015-Aug-29 11:00 061 4 gusting 9 27.2
2015-Aug-29 10:45 100 2 gusting 5 27.8
2015-Aug-29 09:45 051 1 gusting 4 28.3
2015-Aug-29 09:30 035 3 gusting 8 27.2
2015-Aug-29 09:00 082 2 gusting 6 27.8
2015-Aug-29 08:30 106 2 gusting 5 27.2
2015-Aug-29 08:00 084 3 gusting 6 26.7
2015-Aug-29 07:45 090 3 gusting 6 26.7
2015-Aug-29 07:00 26.7
2015-Aug-29 06:45 080 2 gusting 5 26.7
2015-Aug-29 06:30 089 2 gusting 5 26.1
2015-Aug-29 06:15 079 4 gusting 6 26.1
2015-Aug-29 05:15 337 1 gusting 6 25.0
2015-Aug-29 04:45 336 1 gusting 4 25.0
2015-Aug-29 04:00 330 1 gusting 5 25.0
2015-Aug-29 03:45 330 2 gusting 4 25.0
2015-Aug-29 03:30 318 2 gusting 4 25.0
2015-Aug-29 03:15 336 4 gusting 6 25.0
2015-Aug-29 03:00 327 2 gusting 4 25.0
2015-Aug-29 02:45 324 1 gusting 4 25.0
2015-Aug-29 01:45 029 25.6
2015-Aug-29 01:30 25.0
2015-Aug-29 01:15 25.0
2015-Aug-29 00:45 25.0
2015-Aug-29 00:30 25.6